Time;durP1;ratioP1;P1;durP2;ratioP2;P2;SDS_P1;SDS_P2;PMS_P1;PMS_P2;Temp;Humidity;BMP_temperature;BMP_pressure;BME280_temperature;BME280_humidity;BME280_pressure;Samples;Min_cycle;Max_cycle;Signal;HPM_P1;HPM_P2
2021/08/10 00:00:39;;;;;;;1999.90;999.90;;;15.40;99.90;;;;;;6161151;23;20441;-68
2021/08/10 00:03:07;;;;;;;1999.90;999.90;;;15.40;99.90;;;;;;6162147;23;20427;-68
2021/08/10 00:05:38;;;;;;;1999.90;999.90;;;15.40;99.90;;;;;;6160789;23;20415;-68
2021/08/10 00:08:06;;;;;;;1999.90;999.90;;;15.30;99.90;;;;;;6196078;23;20366;-68
2021/08/10 00:10:34;;;;;;;1999.90;999.90;;;15.30;99.90;;;;;;6159101;23;20953;-68
2021/08/10 00:13:03;;;;;;;1999.90;999.90;;;15.30;99.90;;;;;;6159039;23;20439;-68
2021/08/10 00:15:31;;;;;;;1999.90;999.90;;;15.30;99.90;;;;;;6157464;23;20412;-68
2021/08/10 00:17:59;;;;;;;1999.90;999.90;;;15.40;99.90;;;;;;6195314;23;20165;-68
2021/08/10 00:20:27;;;;;;;1999.90;999.90;;;15.40;99.90;;;;;;6185705;23;20371;-68
2021/08/10 00:22:57;;;;;;;1999.90;999.90;;;15.30;99.90;;;;;;6195821;23;20428;-68
2021/08/10 00:25:26;;;;;;;1999.90;999.90;;;15.30;99.90;;;;;;6159005;23;20395;-68
2021/08/10 00:27:54;;;;;;;1999.90;999.90;;;15.30;99.90;;;;;;6159011;23;20953;-68
2021/08/10 00:30:24;;;;;;;1999.90;999.90;;;15.20;99.90;;;;;;6158848;23;20902;-68
2021/08/10 00:32:53;;;;;;;1999.90;999.90;;;15.20;99.90;;;;;;6195154;23;20390;-68
2021/08/10 00:35:22;;;;;;;1999.90;999.90;;;15.20;99.90;;;;;;6158901;23;20420;-68
2021/08/10 00:37:50;;;;;;;1999.90;999.90;;;15.20;99.90;;;;;;6159283;23;20473;-68
2021/08/10 00:40:21;;;;;;;1999.90;999.90;;;15.20;99.90;;;;;;6191699;23;20371;-68
2021/08/10 00:42:50;;;;;;;1999.90;999.90;;;15.10;99.90;;;;;;6154944;23;20939;-68
2021/08/10 00:45:19;;;;;;;1999.90;999.90;;;15.10;99.90;;;;;;6155638;23;20193;-68
2021/08/10 00:47:47;;;;;;;1999.90;999.90;;;15.20;99.90;;;;;;6155229;23;20399;-68
2021/08/10 00:50:16;;;;;;;1999.90;999.90;;;15.10;99.90;;;;;;6155687;23;20193;-68
2021/08/10 00:52:48;;;;;;;1999.90;999.90;;;15.20;99.90;;;;;;6155933;23;20418;-68
2021/08/10 00:55:20;;;;;;;1999.90;999.90;;;15.10;99.90;;;;;;6155733;23;20892;-68
2021/08/10 00:57:51;;;;;;;1999.90;999.90;;;15.10;99.90;;;;;;6155983;23;20388;-68
2021/08/10 01:00:20;;;;;;;1999.90;999.90;;;15.10;99.90;;;;;;6155468;23;20391;-68
2021/08/10 01:02:49;;;;;;;1999.90;999.90;;;15.10;99.90;;;;;;6155613;23;20456;-68
2021/08/10 01:05:19;;;;;;;1999.90;999.90;;;15.10;99.90;;;;;;6155283;23;20504;-68
2021/08/10 01:07:55;;;;;;;1999.90;999.90;;;15.00;99.90;;;;;;6155474;23;20470;-68
2021/08/10 01:10:31;;;;;;;1999.90;999.90;;;15.00;99.90;;;;;;6156458;23;20407;-68
2021/08/10 01:13:09;;;;;;;1999.90;999.90;;;15.00;99.90;;;;;;6155511;23;20414;-68
2021/08/10 01:15:45;;;;;;;1999.90;999.90;;;15.00;99.90;;;;;;6155481;23;20384;-68
2021/08/10 01:18:19;;;;;;;1999.90;999.90;;;15.00;99.90;;;;;;6153944;23;20447;-68
2021/08/10 01:21:18;;;;;;;1999.90;999.90;;;15.10;99.90;;;;;;6155402;23;20172;-68
2021/08/10 01:24:07;;;;;;;1999.90;999.90;;;15.00;99.90;;;;;;6153816;23;20439;-68
2021/08/10 01:26:52;;;;;;;1999.90;999.90;;;15.20;99.90;;;;;;6156109;23;20220;-68
2021/08/10 01:29:25;;;;;;;1999.90;999.90;;;15.10;99.90;;;;;;6167165;23;20496;-68
2021/08/10 01:31:58;;;;;;;1999.90;999.90;;;15.10;99.90;;;;;;6155049;23;20423;-68
2021/08/10 01:34:35;;;;;;;1999.90;999.90;;;15.00;99.90;;;;;;6155291;23;20383;-68
2021/08/10 01:37:19;;;;;;;1999.90;999.90;;;15.00;99.90;;;;;;6156377;23;20405;-68
2021/08/10 01:39:59;;;;;;;1999.90;999.90;;;15.00;99.90;;;;;;6155279;23;20502;-68
2021/08/10 01:42:36;;;;;;;1999.90;999.90;;;14.90;99.90;;;;;;6154869;23;20419;-68
2021/08/10 01:45:06;;;;;;;1999.90;999.90;;;14.90;99.90;;;;;;6155186;23;20395;-68
2021/08/10 01:47:39;;;;;;;1999.90;999.90;;;14.90;99.90;;;;;;6167012;23;20365;-68
2021/08/10 01:50:12;;;;;;;1999.90;999.90;;;14.90;99.90;;;;;;6154926;23;20914;-68
2021/08/10 01:52:52;;;;;;;1999.90;999.90;;;14.90;99.90;;;;;;6154492;23;20430;-68
2021/08/10 01:55:23;;;;;;;1999.90;999.90;;;15.00;99.90;;;;;;6155086;23;20169;-68
2021/08/10 01:57:57;;;;;;;1999.90;999.90;;;15.00;99.90;;;;;;6165213;23;20395;-68
2021/08/10 02:00:26;;;;;;;1999.90;999.90;;;15.10;99.90;;;;;;6155123;23;20183;-68
2021/08/10 02:03:02;;;;;;;1999.90;999.90;;;15.10;99.90;;;;;;6167190;23;20391;-68
2021/08/10 02:05:38;;;;;;;1999.90;999.90;;;15.10;99.90;;;;;;6155090;23;20467;-68
2021/08/10 02:08:13;;;;;;;1999.90;999.90;;;15.00;99.90;;;;;;6155264;23;20395;-69
2021/08/10 02:10:45;;;;;;;1999.90;999.90;;;15.00;99.90;;;;;;6154867;23;20455;-68
2021/08/10 02:13:14;;;;;;;1999.90;999.90;;;15.00;99.90;;;;;;6166232;23;20483;-68
2021/08/10 02:15:49;;;;;;;1999.90;999.90;;;15.00;99.90;;;;;;6154803;23;20405;-68
2021/08/10 02:18:20;;;;;;;1999.90;999.90;;;14.90;99.90;;;;;;6154886;23;20383;-68
2021/08/10 02:21:00;;;;;;;1999.90;999.90;;;15.00;99.90;;;;;;6154707;23;20395;-68
2021/08/10 02:23:32;;;;;;;1999.90;999.90;;;14.90;99.90;;;;;;6154774;23;20998;-68
2021/08/10 02:26:02;;;;;;;1999.90;999.90;;;14.90;99.90;;;;;;6154882;23;20385;-68
2021/08/10 02:28:32;;;;;;;1999.90;999.90;;;14.90;99.90;;;;;;6154654;23;20422;-68
2021/08/10 02:31:03;;;;;;;1999.90;999.90;;;14.90;99.90;;;;;;6154561;23;20498;-68
2021/08/10 02:33:40;;;;;;;1999.90;999.90;;;14.90;99.90;;;;;;6154657;23;20411;-68
2021/08/10 02:36:17;;;;;;;1999.90;999.90;;;14.90;99.90;;;;;;6154746;23;20394;-68
2021/08/10 02:38:47;;;;;;;1999.90;999.90;;;14.90;99.90;;;;;;6154698;23;20379;-68
2021/08/10 02:41:18;;;;;;;1999.90;999.90;;;14.90;99.90;;;;;;6154738;23;20395;-68
2021/08/10 02:43:58;;;;;;;1999.90;999.90;;;14.90;99.90;;;;;;6154814;23;20409;-68
2021/08/10 02:46:27;;;;;;;1999.90;999.90;;;14.90;99.90;;;;;;6154712;23;20438;-68
2021/08/10 02:49:00;;;;;;;1999.90;999.90;;;14.90;99.90;;;;;;6154564;23;20401;-68
2021/08/10 02:51:29;;;;;;;1999.90;999.90;;;14.90;99.90;;;;;;6154349;23;20931;-68
2021/08/10 02:53:57;;;;;;;1999.90;999.90;;;14.90;99.90;;;;;;6154682;23;20910;-68
2021/08/10 02:56:30;;;;;;;1999.90;999.90;;;14.90;99.90;;;;;;6154557;23;20400;-68
2021/08/10 02:59:04;;;;;;;1999.90;999.90;;;14.90;99.90;;;;;;6166553;23;20348;-68
2021/08/10 03:01:35;;;;;;;1999.90;999.90;;;14.90;99.90;;;;;;6154299;23;20429;-68
2021/08/10 03:04:05;;;;;;;1999.90;999.90;;;14.90;99.90;;;;;;6153407;23;20412;-68
2021/08/10 03:06:35;;;;;;;1999.90;999.90;;;15.00;99.90;;;;;;6155554;23;20540;-68
2021/08/10 03:09:04;;;;;;;1999.90;999.90;;;15.00;99.90;;;;;;6152813;23;20403;-68
2021/08/10 03:11:38;;;;;;;1999.90;999.90;;;15.00;99.90;;;;;;6154290;23;20197;-68
2021/08/10 03:14:12;;;;;;;1999.90;999.90;;;15.00;99.90;;;;;;6154798;23;20411;-68
2021/08/10 03:16:42;;;;;;;1999.90;999.90;;;15.00;99.90;;;;;;6154546;23;20724;-68
2021/08/10 03:19:14;;;;;;;1999.90;999.90;;;15.00;99.90;;;;;;6155101;23;20713;-68
2021/08/10 03:21:48;;;;;;;1999.90;999.90;;;15.00;99.90;;;;;;6154268;23;20436;-68
2021/08/10 03:24:19;;;;;;;1999.90;999.90;;;15.00;99.90;;;;;;6165709;23;20450;-69
2021/08/10 03:26:49;;;;;;;1999.90;999.90;;;14.90;99.90;;;;;;6154470;23;20396;-68
2021/08/10 03:29:20;;;;;;;1999.90;999.90;;;14.90;99.90;;;;;;6166442;23;20403;-68
2021/08/10 03:31:50;;;;;;;1999.90;999.90;;;14.90;99.90;;;;;;6154242;23;20444;-69
2021/08/10 03:34:21;;;;;;;1999.90;999.90;;;14.90;99.90;;;;;;6154433;23;20897;-68
2021/08/10 03:36:50;;;;;;;1999.90;999.90;;;14.90;99.90;;;;;;6153984;23;20169;-68
2021/08/10 03:39:19;;;;;;;1999.90;999.90;;;14.90;99.90;;;;;;6153433;23;20410;-69
2021/08/10 03:41:48;;;;;;;1999.90;999.90;;;14.90;99.90;;;;;;6154034;23;20200;-68
2021/08/10 03:44:17;;;;;;;1999.90;999.90;;;14.90;99.90;;;;;;6165672;23;20397;-68
2021/08/10 03:46:45;;;;;;;1999.90;999.90;;;14.90;99.90;;;;;;6154251;23;20387;-68
2021/08/10 03:49:17;;;;;;;1999.90;999.90;;;14.90;99.90;;;;;;6154025;23;20415;-68
2021/08/10 03:51:47;;;;;;;1999.90;999.90;;;14.90;99.90;;;;;;6154340;23;20475;-68
2021/08/10 03:54:15;;;;;;;1999.90;999.90;;;14.90;99.90;;;;;;6154170;23;20412;-68
2021/08/10 03:56:49;;;;;;;1999.90;999.90;;;14.90;99.90;;;;;;6154114;23;20782;-68
2021/08/10 03:59:21;;;;;;;1999.90;999.90;;;14.90;99.90;;;;;;6154511;23;20974;-68
2021/08/10 04:01:54;;;;;;;1999.90;999.90;;;14.90;99.90;;;;;;6153796;23;20418;-69
2021/08/10 04:04:26;;;;;;;1999.90;999.90;;;14.90;99.90;;;;;;6154054;23;20896;-68
2021/08/10 04:07:06;;;;;;;1999.90;999.90;;;14.90;99.90;;;;;;6155116;23;20482;-68
2021/08/10 04:09:37;;;;;;;1999.90;999.90;;;14.90;99.90;;;;;;6154170;23;20792;-68
2021/08/10 04:12:13;;;;;;;1999.90;999.90;;;14.90;99.90;;;;;;6152598;23;20434;-68
2021/08/10 04:14:43;;;;;;;1999.90;999.90;;;15.00;99.90;;;;;;6156860;23;20722;-68
2021/08/10 04:17:17;;;;;;;1999.90;999.90;;;15.00;99.90;;;;;;6156184;23;20390;-68
2021/08/10 04:19:48;;;;;;;1999.90;999.90;;;15.00;99.90;;;;;;6156112;23;20376;-68
2021/08/10 04:22:21;;;;;;;1999.90;999.90;;;15.00;99.90;;;;;;6155969;23;20439;-68
2021/08/10 04:24:50;;;;;;;1999.90;999.90;;;14.90;99.90;;;;;;6156003;23;20405;-68
2021/08/10 04:27:19;;;;;;;1999.90;999.90;;;14.90;99.90;;;;;;6155897;23;20396;-68
2021/08/10 04:29:52;;;;;;;1999.90;999.90;;;14.90;99.90;;;;;;6156709;23;20410;-68
2021/08/10 04:32:23;;;;;;;1999.90;999.90;;;14.90;99.90;;;;;;6155808;23;20518;-68
2021/08/10 04:34:52;;;;;;;1999.90;999.90;;;14.90;99.90;;;;;;6157187;23;20425;-68
2021/08/10 04:37:24;;;;;;;1999.90;999.90;;;14.90;99.90;;;;;;6155833;23;20410;-68
2021/08/10 04:39:55;;;;;;;1999.90;999.90;;;15.00;99.90;;;;;;6155866;23;20409;-68
2021/08/10 04:42:43;;;;;;;712.47;169.67;;;15.00;99.90;;;;;;6184569;23;20945;-68
2021/08/10 04:45:12;;;;;;;10.53;9.43;;;14.90;99.90;;;;;;6161501;23;20422;-68
2021/08/10 04:47:41;;;;;;;11.52;10.32;;;14.90;99.90;;;;;;6195946;23;20403;-68
2021/08/10 04:50:10;;;;;;;11.93;9.10;;;15.00;99.90;;;;;;6160667;23;20239;-68
2021/08/10 04:52:39;;;;;;;12.60;11.30;;;15.00;99.90;;;;;;6159530;23;20966;-68
2021/08/10 04:55:09;;;;;;;12.97;10.20;;;15.10;99.90;;;;;;6160666;23;20423;-68
2021/08/10 04:57:37;;;;;;;11.90;10.63;;;15.10;99.90;;;;;;6197276;23;20386;-68
2021/08/10 05:00:07;;;;;;;13.80;10.97;;;15.10;99.90;;;;;;6160500;23;20453;-68
2021/08/10 05:02:38;;;;;;;11.40;10.20;;;15.10;99.90;;;;;;6160941;23;20410;-68
2021/08/10 05:05:09;;;;;;;16.13;12.63;;;15.00;99.90;;;;;;6160454;23;20749;-68
2021/08/10 05:07:38;;;;;;;12.77;11.40;;;15.00;99.90;;;;;;6160416;23;20427;-68
2021/08/10 05:10:12;;;;;;;12.30;11.00;;;15.00;99.90;;;;;;6159933;23;20487;-69
2021/08/10 05:12:41;;;;;;;12.07;10.93;;;15.00;99.90;;;;;;6160073;23;20443;-68
2021/08/10 05:15:13;;;;;;;14.20;12.80;;;15.00;99.90;;;;;;6160565;23;20381;-68
2021/08/10 05:17:41;;;;;;;13.00;11.80;;;15.00;99.90;;;;;;6160466;23;20398;-68
2021/08/10 05:20:11;;;;;;;13.00;11.77;;;15.10;99.90;;;;;;6161055;23;20415;-68
2021/08/10 05:22:42;;;;;;;13.80;12.00;;;15.00;99.90;;;;;;6160415;23;20436;-68
2021/08/10 05:25:11;;;;;;;12.80;11.50;;;15.10;99.90;;;;;;6160155;23;20433;-68
2021/08/10 05:27:40;;;;;;;13.77;12.53;;;15.10;99.90;;;;;;6160387;23;20394;-68
2021/08/10 05:30:10;;;;;;;17.80;16.00;;;15.10;99.90;;;;;;6160302;23;20741;-68
2021/08/10 05:32:39;;;;;;;13.77;12.43;;;15.10;99.90;;;;;;6160201;23;20450;-68
2021/08/10 05:35:27;;;;;;;16.20;14.50;;;15.10;99.90;;;;;;6161388;23;20412;-68
2021/08/10 05:37:57;;;;;;;17.33;15.70;;;15.10;99.90;;;;;;6196898;23;20838;-68
2021/08/10 05:40:25;;;;;;;16.30;14.80;;;15.10;99.90;;;;;;6160275;23;20416;-68
2021/08/10 05:42:56;;;;;;;19.30;17.53;;;15.10;99.90;;;;;;6161150;23;20433;-68
2021/08/10 05:45:26;;;;;;;16.90;15.40;;;15.20;99.90;;;;;;6160316;23;20426;-68
2021/08/10 05:47:54;;;;;;;19.53;17.80;;;15.20;99.90;;;;;;6160129;23;20394;-68
2021/08/10 05:50:24;;;;;;;19.33;17.70;;;15.20;99.90;;;;;;6160106;23;20506;-68
2021/08/10 05:52:53;;;;;;;22.30;20.60;;;15.20;99.90;;;;;;6159909;23;20414;-68
2021/08/10 05:55:26;;;;;;;22.03;20.03;;;15.20;99.90;;;;;;6160113;23;20904;-68
2021/08/10 05:57:54;;;;;;;20.97;19.03;;;15.20;99.90;;;;;;6160095;23;20424;-68
2021/08/10 06:00:23;;;;;;;15.38;11.43;;;15.30;99.90;;;;;;6186110;23;20462;-68
2021/08/10 06:03:00;;;;;;;20.27;18.47;;;15.30;99.90;;;;;;6160359;23;20192;-68
2021/08/10 06:05:30;;;;;;;12.95;11.65;;;15.40;99.90;;;;;;6196460;23;20403;-68
2021/08/10 06:08:00;;;;;;;22.00;20.00;;;15.40;99.90;;;;;;6160134;23;20199;-68
2021/08/10 06:10:40;;;;;;;22.67;20.63;;;15.50;99.90;;;;;;6161299;23;20378;-69
2021/08/10 06:13:08;;;;;;;24.77;22.17;;;15.50;99.90;;;;;;6159897;23;20414;-69
2021/08/10 06:15:38;;;;;;;39.67;28.40;;;15.60;99.90;;;;;;6161117;23;20675;-68
2021/08/10 06:18:08;;;;;;;74.17;29.13;;;15.90;99.90;;;;;;6186894;23;20411;-68
2021/08/10 06:20:38;;;;;;;64.90;28.00;;;16.10;99.90;;;;;;6160007;23;20418;-68
2021/08/10 06:23:08;;;;;;;66.70;36.53;;;16.40;99.90;;;;;;6160167;23;20530;-68
2021/08/10 06:25:49;;;;;;;96.27;29.20;;;16.60;99.90;;;;;;6159930;23;20502;-69
2021/08/10 06:28:19;;;;;;;65.90;28.37;;;16.70;99.90;;;;;;6159891;23;20416;-69
2021/08/10 06:30:55;;;;;;;75.03;26.60;;;16.70;99.90;;;;;;6160826;23;20411;-69
2021/08/10 06:33:24;;;;;;;73.60;28.97;;;16.70;99.90;;;;;;6196129;23;20890;-68
2021/08/10 06:35:54;;;;;;;58.17;20.45;;;16.80;99.90;;;;;;6159682;23;20497;-68
2021/08/10 06:38:27;;;;;;;115.47;30.97;;;16.90;99.90;;;;;;6160412;23;20173;-68
2021/08/10 06:40:57;;;;;;;42.00;17.63;;;17.00;99.90;;;;;;6188216;23;20739;-69
2021/08/10 06:43:26;;;;;;;78.57;25.50;;;17.10;99.90;;;;;;6159677;23;20185;-68
2021/08/10 06:46:15;;;;;;;94.97;25.00;;;17.10;99.90;;;;;;6196580;23;20394;-68
2021/08/10 06:48:45;;;;;;;118.43;26.67;;;17.20;99.90;;;;;;6159531;23;20755;-68
2021/08/10 06:51:16;;;;;;;68.63;23.87;;;17.20;99.90;;;;;;6159574;23;20407;-69
2021/08/10 06:53:45;;;;;;;115.33;23.33;;;17.20;99.90;;;;;;6159693;23;20415;-69
2021/08/10 06:56:38;;;;;;;102.93;30.40;;;17.20;99.90;;;;;;6159766;23;20423;-70
2021/08/10 06:59:06;;;;;;;99.63;25.53;;;17.20;99.90;;;;;;6196122;23;20927;-69
2021/08/10 07:01:36;;;;;;;48.07;26.10;;;17.10;99.90;;;;;;6159735;23;20440;-69
2021/08/10 07:04:09;;;;;;;92.20;27.93;;;17.10;99.90;;;;;;6159952;23;20804;-69
2021/08/10 07:06:38;;;;;;;78.67;22.03;;;17.10;99.90;;;;;;6159682;23;20423;-69
2021/08/10 07:09:07;;;;;;;99.27;27.87;;;17.10;99.90;;;;;;6159644;23;20889;-69
2021/08/10 07:11:47;;;;;;;11.13;10.03;;;17.20;99.90;;;;;;6158609;23;20794;-68
2021/08/10 07:14:16;;;;;;;99.87;26.47;;;17.30;99.90;;;;;;6195864;23;20419;-69
2021/08/10 07:16:58;;;;;;;76.30;25.20;;;17.30;99.90;;;;;;6159864;23;20408;-68
2021/08/10 07:19:54;;;;;;;78.53;23.40;;;17.30;99.90;;;;;;6183555;23;20415;-69
2021/08/10 07:22:28;;;;;;;37.43;19.50;;;17.40;99.90;;;;;;6159681;23;20446;-69
2021/08/10 07:25:08;;;;;;;101.70;21.73;;;17.40;99.90;;;;;;6159541;23;20462;-69
2021/08/10 07:27:42;;;;;;;104.57;27.40;;;17.50;99.90;;;;;;6159522;23;20451;-69
2021/08/10 07:30:18;;;;;;;185.57;35.67;;;17.60;99.90;;;;;;6160535;23;20416;-69
2021/08/10 07:33:01;;;;;;;109.47;28.33;;;17.70;99.90;;;;;;6186482;23;20777;-68
2021/08/10 07:35:31;;;;;;;128.47;24.53;;;17.70;99.90;;;;;;6159385;23;20428;-68
2021/08/10 07:38:01;;;;;;;103.30;28.57;;;17.70;99.90;;;;;;6159328;23;20800;-69
2021/08/10 07:40:33;;;;;;;98.90;26.53;;;17.70;99.90;;;;;;6159248;23;20396;-68
2021/08/10 07:43:06;;;;;;;72.70;28.67;;;17.70;99.90;;;;;;6159429;23;20446;-68
2021/08/10 07:45:39;;;;;;;34.25;16.88;;;17.80;99.90;;;;;;6159487;23;20482;-69
2021/08/10 07:48:15;;;;;;;93.17;25.50;;;17.90;99.90;;;;;;6159892;23;20179;-69
2021/08/10 07:50:55;;;;;;;49.08;16.08;;;18.00;99.90;;;;;;6161962;23;20489;-68
2021/08/10 07:53:27;;;;;;;113.50;29.87;;;18.00;99.90;;;;;;6161623;23;20199;-68
2021/08/10 07:56:25;;;;;;;75.73;30.10;;;18.10;99.90;;;;;;6163460;23;20799;-69
2021/08/10 07:58:56;;;;;;;103.67;26.40;;;18.30;99.90;;;;;;6162028;23;20422;-69
2021/08/10 08:01:31;;;;;;;111.17;33.87;;;18.30;99.90;;;;;;6162937;23;20411;-69
2021/08/10 08:04:00;;;;;;;144.23;33.67;;;18.40;99.90;;;;;;6162739;23;20425;-69
2021/08/10 08:06:31;;;;;;;124.47;33.43;;;18.40;99.90;;;;;;6162169;23;20434;-69
2021/08/10 08:08:59;;;;;;;146.60;35.07;;;18.60;99.90;;;;;;6162300;23;20422;-69
2021/08/10 08:11:27;;;;;;;103.10;35.43;;;18.70;99.90;;;;;;6199122;23;20396;-69
2021/08/10 08:13:59;;;;;;;99.13;40.10;;;18.70;99.90;;;;;;6163001;23;20440;-69
2021/08/10 08:16:27;;;;;;;105.60;36.73;;;18.70;99.90;;;;;;6161915;23;20755;-69
2021/08/10 08:18:56;;;;;;;113.53;29.73;;;18.70;99.90;;;;;;6198207;23;20482;-69
2021/08/10 08:21:25;;;;;;;114.87;37.33;;;18.70;99.90;;;;;;6161673;23;20418;-69
2021/08/10 08:23:56;;;;;;;96.37;37.63;;;18.70;99.90;;;;;;6161841;23;20749;-69
2021/08/10 08:26:26;;;;;;;137.30;35.57;;;18.80;99.90;;;;;;6162076;23;20415;-69
2021/08/10 08:29:01;;;;;;;105.83;36.47;;;18.90;99.90;;;;;;6198318;23;20383;-69
2021/08/10 08:31:31;;;;;;;101.20;38.33;;;18.90;99.90;;;;;;6162046;23;20435;-69
2021/08/10 08:34:00;;;;;;;131.70;40.33;;;19.00;99.90;;;;;;6161578;23;20530;-69
2021/08/10 08:36:29;;;;;;;134.83;39.23;;;19.00;99.90;;;;;;6162380;23;20462;-69
2021/08/10 08:38:58;;;;;;;98.17;39.07;;;19.00;99.90;;;;;;6162185;23;20911;-70
2021/08/10 08:41:28;;;;;;;134.67;40.10;;;19.00;99.90;;;;;;6156835;23;20449;-70
2021/08/10 08:44:09;;;;;;;114.20;32.63;;;19.00;99.90;;;;;;6157038;23;20515;-70
2021/08/10 08:46:39;;;;;;;116.33;41.90;;;19.00;99.90;;;;;;6157264;23;20935;-70
2021/08/10 08:49:08;;;;;;;153.63;39.50;;;19.00;99.90;;;;;;6156544;23;20904;-69
2021/08/10 08:51:41;;;;;;;138.67;41.90;;;19.00;99.90;;;;;;6156863;23;20523;-70
2021/08/10 08:54:10;;;;;;;126.33;40.50;;;19.10;99.90;;;;;;6156730;23;20444;-70
2021/08/10 08:56:41;;;;;;;122.50;38.07;;;19.10;99.90;;;;;;6156634;23;20405;-69
2021/08/10 08:59:11;;;;;;;87.57;38.63;;;19.10;99.90;;;;;;6156155;23;20416;-70
2021/08/10 09:01:42;;;;;;;99.40;44.23;;;19.10;99.90;;;;;;6156890;23;20970;-70
2021/08/10 09:04:16;;;;;;;117.67;42.73;;;19.10;99.90;;;;;;6156934;23;20425;-70
2021/08/10 09:06:50;;;;;;;119.20;42.23;;;19.10;99.90;;;;;;6156964;23;20443;-70
2021/08/10 09:09:23;;;;;;;128.30;40.40;;;19.00;99.90;;;;;;6156846;23;20881;-69
2021/08/10 09:11:58;;;;;;;142.03;35.00;;;19.10;99.90;;;;;;6156449;23;20467;-70
2021/08/10 09:14:44;;;;;;;163.47;45.27;;;19.00;99.90;;;;;;6156781;23;20429;-70
2021/08/10 09:17:16;;;;;;;132.17;39.13;;;19.00;99.90;;;;;;6156645;23;20409;-70
2021/08/10 09:19:49;;;;;;;121.40;36.33;;;19.00;99.90;;;;;;6156439;23;20475;-70
2021/08/10 09:22:25;;;;;;;113.23;33.50;;;18.90;99.90;;;;;;6158032;23;20437;-70
2021/08/10 09:24:59;;;;;;;13.10;12.10;;;18.90;99.90;;;;;;6158223;23;20417;-70
2021/08/10 09:27:30;;;;;;;65.33;30.43;;;18.90;99.90;;;;;;6157974;23;20260;-70
2021/08/10 09:30:01;;;;;;;14.80;13.43;;;18.80;99.90;;;;;;6168071;23;20476;-69
2021/08/10 09:32:30;;;;;;;63.47;34.50;;;18.80;99.90;;;;;;6157961;23;20451;-69
2021/08/10 09:35:16;;;;;;;77.90;31.97;;;18.80;99.90;;;;;;6158915;23;20492;-69
2021/08/10 09:38:05;;;;;;;62.27;29.70;;;18.70;99.90;;;;;;6158845;23;20408;-69
2021/08/10 09:40:38;;;;;;;68.30;34.20;;;18.60;99.90;;;;;;6158990;23;20828;-69
2021/08/10 09:43:26;;;;;;;100.30;33.30;;;18.60;99.90;;;;;;6161231;23;20444;-69
2021/08/10 09:46:13;;;;;;;103.27;31.27;;;18.50;99.90;;;;;;6160214;23;20408;-69
2021/08/10 09:48:52;;;;;;;43.87;28.33;;;18.40;99.90;;;;;;6160208;23;20408;-69
2021/08/10 09:51:23;;;;;;;63.87;26.83;;;18.40;99.90;;;;;;6160205;23;20403;-69
2021/08/10 09:53:57;;;;;;;86.70;36.87;;;18.50;99.90;;;;;;6196557;23;20461;-69
2021/08/10 09:56:37;;;;;;;87.20;30.20;;;18.60;99.90;;;;;;6160112;23;20507;-69
2021/08/10 09:59:06;;;;;;;79.83;29.67;;;18.70;99.90;;;;;;6196821;23;20463;-69
2021/08/10 10:01:38;;;;;;;78.17;34.30;;;18.80;99.90;;;;;;6159986;23;20443;-69
2021/08/10 10:04:16;;;;;;;67.70;27.10;;;18.90;99.90;;;;;;6161091;23;20420;-69
2021/08/10 10:06:50;;;;;;;65.73;34.10;;;19.00;99.90;;;;;;6160057;23;20412;-69
2021/08/10 10:09:20;;;;;;;110.70;36.43;;;19.10;99.90;;;;;;6159984;23;20808;-69
2021/08/10 10:11:51;;;;;;;76.43;34.07;;;19.20;99.90;;;;;;6160443;23;20903;-69
2021/08/10 10:14:26;;;;;;;104.53;31.10;;;19.30;99.90;;;;;;6160074;23;20592;-69
2021/08/10 10:16:58;;;;;;;100.83;37.27;;;19.40;99.90;;;;;;6159811;23;20428;-69
2021/08/10 10:19:28;;;;;;;95.93;30.33;;;19.50;99.90;;;;;;6196566;23;20380;-69
2021/08/10 10:21:59;;;;;;;78.43;33.07;;;19.60;99.90;;;;;;6196381;23;20962;-69
2021/08/10 10:24:27;;;;;;;10.73;9.73;;;19.70;99.90;;;;;;6195231;23;20555;-69
2021/08/10 10:27:00;;;;;;;108.17;35.80;;;19.80;99.90;;;;;;6196837;23;20388;-69
2021/08/10 10:29:29;;;;;;;13.10;12.00;;;19.90;99.90;;;;;;6159024;23;20450;-69
2021/08/10 10:31:59;;;;;;;85.50;40.80;;;19.90;99.90;;;;;;6196367;23;20215;-69
2021/08/10 10:34:28;;;;;;;69.93;36.80;;;20.00;99.90;;;;;;6197010;23;20766;-69
2021/08/10 10:36:59;;;;;;;113.63;40.37;;;20.00;99.90;;;;;;6196336;23;20475;-69
2021/08/10 10:39:30;;;;;;;144.83;41.73;;;20.00;99.90;;;;;;6159545;23;20403;-69
2021/08/10 10:42:00;;;;;;;98.47;38.07;;;20.00;99.90;;;;;;6195913;23;20485;-69
2021/08/10 10:44:42;;;;;;;100.33;43.70;;;20.10;99.90;;;;;;6159558;23;20455;-70
2021/08/10 10:47:41;;;;;;;77.23;39.40;;;20.10;99.90;;;;;;6159745;23;20404;-69
2021/08/10 10:50:18;;;;;;;129.60;43.90;;;20.20;99.90;;;;;;6186181;23;20471;-69
2021/08/10 10:53:08;;;;;;;127.10;49.63;;;20.20;99.90;;;;;;6196174;23;20725;-69
2021/08/10 10:55:42;;;;;;;112.50;37.90;;;20.30;99.90;;;;;;6196128;23;20416;-69
2021/08/10 10:58:32;;;;;;;95.57;41.20;;;20.40;99.90;;;;;;6159449;23;20407;-69
2021/08/10 11:01:14;;;;;;;140.50;47.07;;;20.50;99.90;;;;;;6159501;23;20443;-69
2021/08/10 11:04:11;;;;;;;123.93;46.27;;;20.60;99.90;;;;;;6196722;23;20769;-69
2021/08/10 11:06:43;;;;;;;145.43;45.70;;;20.70;99.90;;;;;;6159359;23;20863;-69
2021/08/10 11:09:58;;;;;;;93.63;49.37;;;20.80;99.90;;;;;;6196033;23;20411;-69
2021/08/10 11:12:41;;;;;;;126.00;50.20;;;20.80;99.90;;;;;;6159335;23;20447;-70
2021/08/10 11:15:15;;;;;;;195.40;56.53;;;20.80;99.90;;;;;;6195950;23;20384;-70
2021/08/10 11:18:22;;;;;;;120.30;59.30;;;20.80;99.90;;;;;;6185960;23;20396;-70
2021/08/10 11:20:54;;;;;;;151.53;54.40;;;20.70;99.90;;;;;;6159390;23;20945;-70
2021/08/10 11:23:36;;;;;;;131.43;46.70;;;20.60;99.90;;;;;;6158939;23;20523;-70
2021/08/10 11:26:38;;;;;;;39.90;19.50;;;20.60;99.90;;;;;;6158796;23;20405;-69
2021/08/10 11:29:08;;;;;;;145.93;47.60;;;20.60;99.90;;;;;;6176279;23;20172;-70
2021/08/10 11:31:51;;;;;;;201.40;49.53;;;20.60;99.90;;;;;;6195482;23;20415;-70
2021/08/10 11:34:39;;;;;;;173.70;51.13;;;20.60;99.90;;;;;;6159217;23;20412;-70
2021/08/10 11:37:24;;;;;;;116.30;49.20;;;20.60;99.90;;;;;;6159096;23;20626;-70
2021/08/10 11:40:01;;;;;;;128.17;48.07;;;20.70;99.90;;;;;;6159467;23;20400;-69
2021/08/10 11:42:29;;;;;;;127.83;49.93;;;20.70;99.90;;;;;;6153935;23;20944;-70
2021/08/10 11:44:58;;;;;;;112.20;50.60;;;20.90;99.90;;;;;;6155997;23;20413;-70
2021/08/10 11:47:26;;;;;;;152.40;49.57;;;21.00;99.90;;;;;;6155604;23;20409;-70
2021/08/10 11:49:55;;;;;;;106.07;50.63;;;21.00;99.90;;;;;;6165593;23;20417;-70
2021/08/10 11:52:41;;;;;;;132.90;48.50;;;21.00;99.90;;;;;;6165757;23;20464;-70
2021/08/10 11:55:10;;;;;;;70.93;30.07;;;21.00;99.90;;;;;;6165746;23;20400;-70
2021/08/10 11:57:56;;;;;;;130.83;50.20;;;21.00;99.90;;;;;;6153973;23;20449;-70
2021/08/10 12:00:26;;;;;;;102.45;41.58;;;21.00;99.90;;;;;;6153923;23;20424;-70
2021/08/10 12:02:54;;;;;;;156.93;56.03;;;20.90;99.90;;;;;;6165473;23;20208;-70
2021/08/10 12:05:23;;;;;;;126.57;49.90;;;20.90;99.90;;;;;;6165455;23;20534;-70
2021/08/10 12:07:55;;;;;;;147.17;54.33;;;20.80;99.90;;;;;;6153948;23;20413;-70
2021/08/10 12:10:28;;;;;;;152.60;49.73;;;20.80;99.90;;;;;;6156258;23;20404;-70
2021/08/10 12:13:01;;;;;;;131.93;51.60;;;20.70;99.90;;;;;;6155935;23;20436;-70
2021/08/10 12:15:43;;;;;;;142.23;56.13;;;20.70;99.90;;;;;;6165421;23;20385;-70
2021/08/10 12:18:13;;;;;;;136.40;49.47;;;20.60;99.90;;;;;;6154145;23;20439;-70
2021/08/10 12:20:43;;;;;;;148.40;45.90;;;20.50;99.90;;;;;;6155852;23;20400;-70
2021/08/10 12:23:13;;;;;;;115.87;48.60;;;20.50;99.90;;;;;;6155758;23;20458;-70
2021/08/10 12:25:41;;;;;;;7.70;7.00;;;20.50;99.90;;;;;;6163966;23;20467;-70
2021/08/10 12:28:11;;;;;;;117.47;46.07;;;20.50;99.90;;;;;;6166405;23;20481;-70
2021/08/10 12:30:43;;;;;;;137.43;50.20;;;20.50;99.90;;;;;;6154011;23;20436;-70
2021/08/10 12:33:29;;;;;;;115.03;48.93;;;20.50;99.90;;;;;;6153940;23;20494;-70
2021/08/10 12:36:08;;;;;;;111.87;52.07;;;20.40;99.90;;;;;;6167348;23;20385;-70
2021/08/10 12:38:38;;;;;;;120.27;43.17;;;20.30;99.90;;;;;;6168129;23;20380;-70
2021/08/10 12:41:06;;;;;;;124.40;43.77;;;20.20;99.90;;;;;;6156598;23;20505;-70
2021/08/10 12:43:37;;;;;;;120.47;40.90;;;20.10;99.90;;;;;;6155935;23;20515;-70